Time;durP1;ratioP1;P1;durP2;ratioP2;P2;SDS_P1;SDS_P2;PMS_P1;PMS_P2;Temp;Humidity;BMP_temperature;BMP_pressure;BME280_temperature;BME280_humidity;BME280_pressure;Samples;Min_cycle;Max_cycle;Signal;HPM_P1;HPM_P2
2021/03/04 00:02:22;;;;;;;8.15;5.18;;;18.20;53.20;;;;;;5049151;28;20029;-62
2021/03/04 00:04:48;;;;;;;9.65;4.95;;;18.20;53.20;;;;;;5051558;28;20560;-59
2021/03/04 00:07:13;;;;;;;10.15;5.30;;;18.30;53.10;;;;;;5029564;28;20033;-61
2021/03/04 00:09:39;;;;;;;11.65;6.57;;;18.30;53.70;;;;;;5046917;28;20037;-62
2021/03/04 00:12:04;;;;;;;7.65;5.40;;;18.30;53.00;;;;;;5046514;28;20029;-62
2021/03/04 00:14:30;;;;;;;7.35;5.57;;;18.30;52.90;;;;;;5046685;28;20147;-62
2021/03/04 00:16:56;;;;;;;7.22;5.07;;;18.30;52.80;;;;;;5046743;28;20017;-62
2021/03/04 00:19:22;;;;;;;11.25;5.50;;;18.30;52.90;;;;;;5047137;28;20040;-61
2021/03/04 00:21:47;;;;;;;9.40;5.93;;;18.30;52.80;;;;;;5046202;28;20190;-62
2021/03/04 00:24:13;;;;;;;9.35;5.60;;;18.30;52.70;;;;;;5046937;28;20125;-61
2021/03/04 00:26:39;;;;;;;5.95;5.25;;;18.30;52.70;;;;;;5045870;28;20025;-61
2021/03/04 00:29:04;;;;;;;6.93;4.70;;;18.30;52.60;;;;;;5045487;28;20024;-62
2021/03/04 00:31:30;;;;;;;8.98;5.85;;;18.30;52.50;;;;;;5046550;28;20644;-59
2021/03/04 00:33:56;;;;;;;7.55;4.82;;;18.30;52.50;;;;;;5046270;28;20025;-61
2021/03/04 00:36:21;;;;;;;9.70;6.22;;;18.30;52.40;;;;;;5046727;28;20032;-61
2021/03/04 00:38:46;;;;;;;9.68;5.85;;;18.30;52.30;;;;;;5046173;28;20029;-61
2021/03/04 00:41:12;;;;;;;7.38;5.35;;;18.30;52.30;;;;;;5046328;28;20702;-62
2021/03/04 00:43:38;;;;;;;9.82;5.38;;;18.30;52.20;;;;;;5045925;28;20167;-62
2021/03/04 00:46:03;;;;;;;9.82;5.32;;;18.30;52.10;;;;;;5046029;28;20036;-60
2021/03/04 00:48:29;;;;;;;7.75;5.25;;;18.30;52.10;;;;;;5045754;28;20446;-61
2021/03/04 00:50:54;;;;;;;8.73;5.53;;;18.30;52.10;;;;;;5046232;28;20033;-61
2021/03/04 00:53:20;;;;;;;7.20;4.68;;;18.30;52.10;;;;;;5046555;28;20086;-61
2021/03/04 00:55:46;;;;;;;6.63;5.13;;;18.30;52.10;;;;;;5045301;28;20112;-61
2021/03/04 00:58:11;;;;;;;7.80;5.43;;;18.30;52.10;;;;;;5044545;28;20029;-62
2021/03/04 01:00:37;;;;;;;6.65;4.95;;;18.30;52.10;;;;;;5046126;28;20024;-61
2021/03/04 01:03:02;;;;;;;7.13;5.57;;;18.30;52.00;;;;;;5046138;28;20029;-60
2021/03/04 01:05:28;;;;;;;9.77;5.47;;;18.30;51.90;;;;;;5046107;28;20435;-61
2021/03/04 01:07:53;;;;;;;7.93;5.13;;;18.30;51.90;;;;;;5045974;28;20083;-60
2021/03/04 01:10:22;;;;;;;7.93;5.53;;;18.30;51.90;;;;;;5045238;28;20539;-62
2021/03/04 01:12:47;;;;;;;6.40;5.07;;;18.30;51.80;;;;;;5045662;28;20052;-61
2021/03/04 01:15:18;;;;;;;8.90;5.13;;;18.30;51.80;;;;;;5046027;28;21045;-62
2021/03/04 01:17:43;;;;;;;7.28;5.28;;;18.30;51.80;;;;;;5045262;28;20183;-59
2021/03/04 01:20:13;;;;;;;12.02;5.57;;;18.30;51.80;;;;;;5045827;28;20025;-60
2021/03/04 01:22:38;;;;;;;10.98;5.68;;;18.30;51.70;;;;;;5027578;28;20033;-61
2021/03/04 01:25:05;;;;;;;7.63;5.10;;;18.30;51.70;;;;;;5045245;28;20029;-61
2021/03/04 01:27:30;;;;;;;6.60;4.90;;;18.30;51.70;;;;;;5045107;28;20590;-61
2021/03/04 01:29:56;;;;;;;5.93;4.80;;;18.30;51.60;;;;;;5045407;28;20033;-57
2021/03/04 01:32:22;;;;;;;7.93;4.85;;;18.30;51.60;;;;;;5046403;28;20036;-62
2021/03/04 01:34:47;;;;;;;6.78;5.20;;;18.40;51.70;;;;;;5027534;28;20030;-61
2021/03/04 01:37:13;;;;;;;7.25;5.15;;;18.30;51.50;;;;;;5024527;28;24974;-62
2021/03/04 01:39:38;;;;;;;11.80;6.40;;;18.40;51.50;;;;;;5025450;28;20091;-61
2021/03/04 01:42:04;;;;;;;7.15;5.03;;;18.30;51.40;;;;;;5025013;28;20571;-63
2021/03/04 01:44:29;;;;;;;7.25;5.38;;;18.30;51.40;;;;;;5025325;28;20036;-56
2021/03/04 01:46:55;;;;;;;8.50;5.35;;;18.30;51.40;;;;;;5024949;28;20038;-62
2021/03/04 01:49:20;;;;;;;7.43;5.20;;;18.30;51.40;;;;;;5025567;28;20042;-61
2021/03/04 01:51:46;;;;;;;5.85;5.25;;;18.30;51.30;;;;;;5007088;28;20536;-60
2021/03/04 01:54:12;;;;;;;6.90;5.18;;;18.30;51.40;;;;;;5008302;28;20030;-61
2021/03/04 01:56:37;;;;;;;8.77;4.63;;;18.30;51.30;;;;;;5006982;28;20464;-58
2021/03/04 01:59:03;;;;;;;7.82;5.35;;;18.30;51.30;;;;;;5007431;28;20496;-60
2021/03/04 02:02:12;;;;;;;8.90;5.43;;;18.30;51.30;;;;;;5024791;28;20029;-63
2021/03/04 02:04:37;;;;;;;7.47;4.93;;;18.30;51.30;;;;;;5024917;28;20116;-60
2021/03/04 02:07:16;;;;;;;6.75;5.07;;;18.30;51.30;;;;;;5023591;28;20117;-61
2021/03/04 02:09:45;;;;;;;7.70;5.60;;;18.30;51.30;;;;;;5006864;28;20499;-62
2021/03/04 02:12:25;;;;;;;6.68;4.72;;;18.30;51.20;;;;;;5007095;28;20033;-61
2021/03/04 02:14:53;;;;;;;9.70;5.53;;;18.30;51.20;;;;;;5007145;28;20025;-62
2021/03/04 02:17:20;;;;;;;6.53;5.38;;;18.30;51.30;;;;;;5006352;28;20026;-60
2021/03/04 02:20:10;;;;;;;7.85;4.78;;;18.30;51.30;;;;;;5007281;28;20028;-62
2021/03/04 02:23:12;;;;;;;9.48;5.55;;;18.30;51.30;;;;;;5023445;28;20262;-61
2021/03/04 02:25:54;;;;;;;6.53;4.80;;;18.30;51.30;;;;;;5024434;28;20112;-60
2021/03/04 02:28:21;;;;;;;8.25;5.25;;;18.30;51.30;;;;;;5024480;28;20396;-62
2021/03/04 02:30:46;;;;;;;7.53;5.68;;;18.30;51.30;;;;;;5006426;28;20034;-62
2021/03/04 02:33:14;;;;;;;6.95;5.80;;;18.30;51.30;;;;;;5007094;28;20022;-61
2021/03/04 02:35:41;;;;;;;6.55;4.78;;;18.30;51.20;;;;;;4989986;28;20083;-62
2021/03/04 02:38:08;;;;;;;7.70;5.80;;;18.30;51.20;;;;;;5006792;28;20033;-63
2021/03/04 02:40:34;;;;;;;7.70;5.15;;;18.30;51.20;;;;;;5007928;28;20452;-62
2021/03/04 02:43:00;;;;;;;7.22;5.30;;;18.30;51.20;;;;;;5009541;28;20030;-62
2021/03/04 02:45:26;;;;;;;7.07;5.45;;;18.30;51.20;;;;;;5010985;28;20040;-60
2021/03/04 02:47:52;;;;;;;5.95;5.05;;;18.30;51.20;;;;;;5024350;28;20026;-60
2021/03/04 02:50:17;;;;;;;6.20;5.18;;;18.30;51.20;;;;;;5023727;28;20039;-61
2021/03/04 02:52:43;;;;;;;8.77;5.50;;;18.30;51.10;;;;;;5004862;28;20125;-62
2021/03/04 02:55:09;;;;;;;9.38;6.40;;;18.30;51.20;;;;;;5006253;28;20440;-60
2021/03/04 02:57:35;;;;;;;6.72;5.25;;;18.30;51.10;;;;;;4989678;28;20037;-56
2021/03/04 03:00:00;;;;;;;7.47;4.95;;;18.30;51.10;;;;;;5006339;28;20039;-62
2021/03/04 03:02:26;;;;;;;10.80;5.60;;;18.30;51.10;;;;;;5006245;28;20033;-62
2021/03/04 03:04:52;;;;;;;7.97;4.97;;;18.30;51.70;;;;;;5006353;28;20025;-58
2021/03/04 03:07:17;;;;;;;7.95;5.32;;;18.30;51.10;;;;;;5005688;28;20378;-62
2021/03/04 03:09:44;;;;;;;7.10;5.07;;;18.30;51.00;;;;;;5006456;28;20463;-62
2021/03/04 03:12:11;;;;;;;8.02;5.20;;;18.30;51.00;;;;;;5006148;28;20026;-60
2021/03/04 03:14:37;;;;;;;6.30;5.38;;;18.30;51.00;;;;;;5006846;28;20021;-62
2021/03/04 03:17:02;;;;;;;7.15;5.30;;;18.30;50.90;;;;;;5023143;28;20075;-62
2021/03/04 03:19:28;;;;;;;6.45;5.05;;;18.30;51.00;;;;;;5023578;28;20030;-62
2021/03/04 03:21:54;;;;;;;6.72;4.72;;;18.30;50.90;;;;;;5027552;28;20026;-62
2021/03/04 03:24:19;;;;;;;8.52;5.85;;;18.30;50.90;;;;;;5027892;28;20492;-62
2021/03/04 03:26:45;;;;;;;7.57;5.43;;;18.30;50.90;;;;;;5027252;28;20056;-61
2021/03/04 03:29:10;;;;;;;7.10;5.57;;;18.30;50.80;;;;;;5009843;28;20053;-62
2021/03/04 03:31:36;;;;;;;15.40;5.40;;;18.30;50.90;;;;;;5009692;28;20661;-61
2021/03/04 03:34:02;;;;;;;8.93;5.18;;;18.30;50.90;;;;;;5009965;28;20104;-62
2021/03/04 03:36:27;;;;;;;6.85;5.32;;;18.30;50.90;;;;;;5009064;28;20026;-61
2021/03/04 03:38:53;;;;;;;8.50;5.63;;;18.30;51.00;;;;;;5010423;28;20068;-62
2021/03/04 03:41:18;;;;;;;6.93;5.43;;;18.30;51.00;;;;;;5009890;28;20844;-60
2021/03/04 03:43:44;;;;;;;6.93;4.88;;;18.30;51.00;;;;;;5009708;28;20033;-62
2021/03/04 03:46:11;;;;;;;7.18;4.90;;;18.30;51.10;;;;;;5009502;28;20095;-60
2021/03/04 03:48:36;;;;;;;7.18;4.57;;;18.20;51.00;;;;;;5009096;28;20676;-61
2021/03/04 03:51:02;;;;;;;7.32;5.28;;;18.20;51.00;;;;;;5009494;28;20132;-62
2021/03/04 03:53:27;;;;;;;7.05;5.35;;;18.20;51.00;;;;;;5009555;28;20059;-63
2021/03/04 03:55:54;;;;;;;8.27;5.13;;;18.20;50.90;;;;;;5027411;28;20037;-61
2021/03/04 03:58:21;;;;;;;7.25;5.32;;;18.20;51.00;;;;;;5008485;28;20396;-61
2021/03/04 04:00:47;;;;;;;8.98;5.30;;;18.20;50.90;;;;;;5009742;28;20040;-62
2021/03/04 04:03:12;;;;;;;8.48;4.82;;;18.20;50.90;;;;;;5008651;28;20029;-62
2021/03/04 04:05:38;;;;;;;7.18;5.43;;;18.20;50.80;;;;;;5009481;28;20480;-60
2021/03/04 04:08:04;;;;;;;5.50;4.78;;;18.20;50.80;;;;;;5026444;28;20042;-61
2021/03/04 04:10:31;;;;;;;5.95;4.85;;;18.20;50.80;;;;;;5027058;28;20044;-61
2021/03/04 04:12:56;;;;;;;5.93;4.55;;;18.20;50.80;;;;;;5027377;28;20385;-60
2021/03/04 04:15:22;;;;;;;6.20;5.22;;;18.20;50.90;;;;;;5027442;28;20034;-62
2021/03/04 04:17:48;;;;;;;9.30;4.65;;;18.20;50.80;;;;;;5008631;28;20156;-60
2021/03/04 04:20:14;;;;;;;7.93;5.13;;;18.20;50.80;;;;;;5027156;28;20060;-64
2021/03/04 04:22:40;;;;;;;7.95;5.85;;;18.20;50.80;;;;;;5027145;28;20026;-62
2021/03/04 04:25:06;;;;;;;6.35;5.38;;;18.20;50.80;;;;;;5026922;28;20025;-63
2021/03/04 04:27:31;;;;;;;11.02;5.45;;;18.20;50.70;;;;;;5007857;28;20117;-63
2021/03/04 04:29:56;;;;;;;6.03;4.90;;;18.20;50.60;;;;;;5027026;28;20035;-63
2021/03/04 04:32:22;;;;;;;8.07;5.35;;;18.20;50.70;;;;;;5025521;28;20543;-62
2021/03/04 04:34:47;;;;;;;5.47;4.93;;;18.20;50.60;;;;;;5026733;28;20033;-62
2021/03/04 04:37:13;;;;;;;7.15;5.32;;;18.30;50.70;;;;;;5025828;28;20033;-62
2021/03/04 04:39:38;;;;;;;5.90;4.78;;;18.20;50.60;;;;;;5026194;28;20632;-63
2021/03/04 04:42:04;;;;;;;6.60;5.05;;;18.20;50.60;;;;;;5026595;28;20034;-63
2021/03/04 04:44:30;;;;;;;5.95;4.40;;;18.20;50.60;;;;;;5009303;28;20029;-60
2021/03/04 04:46:55;;;;;;;7.90;5.13;;;18.20;50.60;;;;;;5025921;28;20026;-63
2021/03/04 04:49:21;;;;;;;7.72;5.10;;;18.20;50.50;;;;;;5026307;28;20156;-63
2021/03/04 04:51:46;;;;;;;5.35;4.65;;;18.20;50.50;;;;;;5025625;28;20607;-60
2021/03/04 04:54:12;;;;;;;5.75;4.82;;;18.20;50.40;;;;;;5026336;28;20022;-61
2021/03/04 04:56:37;;;;;;;7.10;5.13;;;18.20;50.50;;;;;;5025712;28;20033;-59
2021/03/04 04:59:03;;;;;;;6.70;5.30;;;18.30;50.40;;;;;;5008721;28;20083;-63
2021/03/04 05:01:28;;;;;;;6.30;5.47;;;18.30;50.40;;;;;;5025540;28;20523;-63
2021/03/04 05:03:54;;;;;;;7.75;5.15;;;18.30;50.40;;;;;;5026420;28;20034;-63
2021/03/04 05:06:20;;;;;;;8.07;5.05;;;18.20;50.30;;;;;;5025445;28;20045;-62
2021/03/04 05:08:45;;;;;;;7.53;5.45;;;18.20;50.40;;;;;;5026013;28;20040;-62
2021/03/04 05:11:11;;;;;;;6.13;3.90;;;18.20;50.30;;;;;;5026306;28;20033;-62
2021/03/04 05:13:36;;;;;;;8.43;5.50;;;18.30;50.40;;;;;;5028151;28;20032;-63
2021/03/04 05:16:02;;;;;;;5.57;4.72;;;18.20;50.30;;;;;;5027488;28;20033;-63
2021/03/04 05:18:27;;;;;;;5.90;4.80;;;18.30;50.40;;;;;;5046480;28;20036;-63
2021/03/04 05:20:53;;;;;;;18.63;5.03;;;18.20;50.30;;;;;;5046555;28;21304;-63
2021/03/04 05:23:18;;;;;;;7.18;4.82;;;18.20;50.20;;;;;;5048202;28;20331;-63
2021/03/04 05:25:44;;;;;;;7.57;4.75;;;18.20;50.20;;;;;;5047783;28;20094;-63
2021/03/04 05:28:09;;;;;;;7.53;5.05;;;18.30;50.20;;;;;;5044954;28;20037;-62
2021/03/04 05:30:35;;;;;;;6.18;5.22;;;18.20;50.20;;;;;;5044802;28;20033;-60
2021/03/04 05:33:00;;;;;;;6.95;4.60;;;18.20;50.20;;;;;;5045323;28;20546;-63
2021/03/04 05:35:26;;;;;;;6.68;4.53;;;18.20;50.10;;;;;;5045726;28;20029;-61
2021/03/04 05:37:51;;;;;;;7.00;4.43;;;18.20;50.10;;;;;;5045024;28;20109;-63
2021/03/04 05:40:17;;;;;;;6.72;4.82;;;18.20;50.20;;;;;;5037370;28;20236;-61
2021/03/04 05:42:43;;;;;;;9.05;5.25;;;18.10;50.50;;;;;;5024656;28;20045;-65
2021/03/04 05:45:11;;;;;;;9.80;5.07;;;18.10;50.50;;;;;;5025070;28;20025;-64
2021/03/04 05:47:38;;;;;;;7.25;4.93;;;18.10;50.40;;;;;;5024364;28;20116;-64
2021/03/04 05:50:05;;;;;;;6.80;5.00;;;18.10;50.40;;;;;;5007797;28;20033;-63
2021/03/04 05:52:38;;;;;;;10.15;4.90;;;18.20;50.50;;;;;;5025064;28;20033;-64
2021/03/04 05:55:04;;;;;;;8.77;5.30;;;18.20;50.30;;;;;;5025333;28;20520;-63
2021/03/04 05:57:30;;;;;;;7.18;5.88;;;18.10;51.30;;;;;;5025226;28;20672;-63
2021/03/04 05:59:55;;;;;;;14.55;4.95;;;18.10;52.10;;;;;;5024707;28;20041;-59
2021/03/04 06:02:21;;;;;;;11.68;5.30;;;18.10;52.00;;;;;;4990636;28;20044;-63
2021/03/04 06:04:48;;;;;;;13.55;6.10;;;18.10;51.80;;;;;;5024816;28;20040;-58
2021/03/04 06:07:13;;;;;;;16.05;6.93;;;18.10;51.60;;;;;;5024337;28;20033;-64
2021/03/04 06:09:39;;;;;;;7.88;5.00;;;18.20;51.40;;;;;;5006839;28;20026;-64
2021/03/04 06:12:05;;;;;;;14.80;5.50;;;18.20;51.20;;;;;;5024428;28;20029;-64
2021/03/04 06:14:34;;;;;;;12.27;6.60;;;18.20;51.00;;;;;;5007317;28;20099;-65
2021/03/04 06:17:20;;;;;;;11.32;5.88;;;18.20;50.90;;;;;;5006401;28;20710;-64
2021/03/04 06:19:59;;;;;;;9.70;5.45;;;18.20;50.80;;;;;;5043081;28;20770;-62
2021/03/04 06:22:28;;;;;;;12.93;6.43;;;18.20;50.70;;;;;;5026184;28;20037;-65
2021/03/04 06:24:55;;;;;;;9.95;5.50;;;18.20;50.60;;;;;;5035379;28;20033;-62
2021/03/04 06:27:30;;;;;;;9.02;5.75;;;18.20;50.50;;;;;;5036050;28;20052;-61
2021/03/04 06:29:56;;;;;;;;;;;18.20;50.90;;;;;;5023819;28;20033;-61
2021/03/04 06:32:23;;;;;;;;;;;18.20;51.00;;;;;;5040092;28;19909;-64
2021/03/04 06:35:00;;;;;;;44.83;22.88;;;18.10;51.70;;;;;;5026701;28;20198;-65
2021/03/04 06:37:27;;;;;;;51.35;27.35;;;18.10;52.10;;;;;;5027161;28;20037;-64
2021/03/04 06:39:53;;;;;;;50.97;26.30;;;18.10;52.20;;;;;;5044474;28;20039;-61
2021/03/04 06:42:19;;;;;;;55.53;27.42;;;18.10;52.30;;;;;;5044373;28;20025;-62
2021/03/04 06:44:45;;;;;;;49.45;25.63;;;18.10;52.30;;;;;;5043480;28;20017;-64
2021/03/04 06:47:11;;;;;;;54.75;27.33;;;18.10;52.40;;;;;;5025375;28;20021;-61
2021/03/04 06:49:38;;;;;;;46.60;24.92;;;18.10;52.30;;;;;;5043233;28;20132;-59
2021/03/04 06:52:04;;;;;;;50.60;24.85;;;18.10;52.40;;;;;;5043443;28;20029;-61
2021/03/04 06:54:30;;;;;;;49.05;25.77;;;18.10;52.30;;;;;;5024649;28;20053;-65
2021/03/04 06:56:55;;;;;;;46.17;23.30;;;18.10;52.30;;;;;;5042652;28;20067;-60
2021/03/04 06:59:21;;;;;;;47.53;24.27;;;18.10;52.30;;;;;;5026561;28;20025;-65
2021/03/04 07:01:46;;;;;;;45.20;23.50;;;18.10;52.30;;;;;;5026497;28;20025;-62
2021/03/04 07:04:15;;;;;;;40.92;22.67;;;18.10;52.20;;;;;;5044295;28;20040;-65
2021/03/04 07:06:44;;;;;;;40.17;20.80;;;18.10;52.20;;;;;;5043855;28;20033;-65
2021/03/04 07:09:09;;;;;;;39.13;21.35;;;18.10;52.20;;;;;;5027179;28;20045;-58
2021/03/04 07:11:36;;;;;;;33.30;20.00;;;18.10;52.20;;;;;;5026249;28;20029;-64
2021/03/04 07:14:06;;;;;;;40.30;20.75;;;18.10;52.10;;;;;;5043764;28;20451;-65
2021/03/04 07:16:33;;;;;;;33.97;18.70;;;18.10;52.20;;;;;;5043458;28;20051;-65
2021/03/04 07:19:00;;;;;;;32.58;19.27;;;18.10;52.10;;;;;;5043697;28;20025;-63
2021/03/04 07:21:26;;;;;;;34.88;17.75;;;18.10;52.10;;;;;;5043210;28;20043;-62
2021/03/04 07:23:52;;;;;;;29.45;17.08;;;18.10;52.10;;;;;;5026333;28;20052;-64
2021/03/04 07:26:18;;;;;;;28.80;17.27;;;18.10;52.00;;;;;;5043300;28;20021;-60
2021/03/04 07:28:44;;;;;;;28.88;17.23;;;18.10;52.00;;;;;;5026046;28;20033;-64
2021/03/04 07:31:10;;;;;;;29.55;17.23;;;18.10;52.00;;;;;;5043575;28;20045;-63
2021/03/04 07:33:37;;;;;;;29.85;15.77;;;18.10;52.10;;;;;;5044186;28;20029;-62
2021/03/04 07:36:05;;;;;;;30.00;15.98;;;18.10;52.00;;;;;;5043487;28;20144;-63
2021/03/04 07:38:31;;;;;;;31.73;17.30;;;18.10;52.00;;;;;;5043182;28;20029;-62
2021/03/04 07:41:00;;;;;;;27.98;15.63;;;18.10;52.00;;;;;;5043193;28;20036;-64
2021/03/04 07:43:26;;;;;;;25.25;15.25;;;18.10;52.00;;;;;;5043204;28;20036;-60
2021/03/04 07:45:51;;;;;;;27.15;15.35;;;18.10;52.00;;;;;;5043485;28;20029;-59
2021/03/04 07:48:18;;;;;;;27.20;17.10;;;18.10;52.10;;;;;;5025236;28;20068;-63
2021/03/04 07:50:54;;;;;;;20.80;13.10;;;18.10;51.90;;;;;;5043081;28;20037;-64
2021/03/04 07:53:20;;;;;;;23.33;14.70;;;18.10;51.80;;;;;;5043851;28;20024;-63
2021/03/04 07:55:46;;;;;;;28.30;14.82;;;18.10;51.80;;;;;;5024839;28;20029;-64
2021/03/04 07:58:14;;;;;;;23.45;14.40;;;18.10;51.80;;;;;;5010298;28;20025;-62
2021/03/04 08:00:40;;;;;;;23.98;13.90;;;18.10;51.60;;;;;;5030433;28;20483;-64
2021/03/04 08:03:06;;;;;;;22.63;13.23;;;18.10;51.70;;;;;;5022160;28;20038;-64
2021/03/04 08:05:35;;;;;;;25.02;14.23;;;18.10;51.60;;;;;;5022497;28;20025;-64
2021/03/04 08:08:17;;;;;;;20.10;12.05;;;18.10;52.20;;;;;;5025803;28;20484;-64
2021/03/04 08:10:49;;;;;;;18.70;12.27;;;18.10;51.60;;;;;;5026038;28;20041;-63
2021/03/04 08:13:15;;;;;;;21.15;12.05;;;18.10;51.50;;;;;;5027095;28;20400;-64
2021/03/04 08:15:41;;;;;;;18.58;12.70;;;18.10;51.40;;;;;;5027651;28;20029;-61
2021/03/04 08:18:20;;;;;;;21.42;11.30;;;18.10;51.40;;;;;;5030728;28;20029;-62
2021/03/04 08:20:46;;;;;;;19.52;12.43;;;18.10;51.40;;;;;;5025959;28;20147;-64
2021/03/04 08:23:12;;;;;;;20.15;11.95;;;18.10;51.40;;;;;;5026194;28;20519;-62
2021/03/04 08:25:37;;;;;;;19.42;11.65;;;18.10;51.40;;;;;;5025049;28;20120;-62
2021/03/04 08:28:04;;;;;;;19.17;11.30;;;18.10;51.40;;;;;;5025145;28;20072;-61
2021/03/04 08:30:33;;;;;;;16.73;10.07;;;18.10;51.20;;;;;;5025354;28;20029;-65
2021/03/04 08:33:01;;;;;;;14.75;9.38;;;18.10;51.10;;;;;;5025146;28;20057;-64
2021/03/04 08:35:27;;;;;;;15.75;9.88;;;18.10;51.60;;;;;;5025040;28;20039;-66
2021/03/04 08:38:01;;;;;;;14.40;8.60;;;18.20;51.00;;;;;;5024638;28;20041;-63
2021/03/04 08:40:27;;;;;;;17.25;9.77;;;18.10;50.90;;;;;;5025217;28;20040;-63
2021/03/04 08:42:52;;;;;;;12.60;8.90;;;18.10;50.80;;;;;;5024615;28;20033;-65
2021/03/04 08:45:51;;;;;;;13.27;8.77;;;18.20;50.80;;;;;;5025520;28;20022;-61
2021/03/04 08:48:16;;;;;;;16.33;9.50;;;18.10;50.70;;;;;;5009272;28;20025;-64
2021/03/04 08:50:43;;;;;;;15.48;9.10;;;18.20;50.80;;;;;;5026499;28;20045;-63
2021/03/04 08:53:13;;;;;;;12.88;8.45;;;18.10;51.20;;;;;;5025768;28;20026;-63
2021/03/04 08:55:45;;;;;;;15.20;9.10;;;18.10;51.40;;;;;;5025474;28;20030;-64
2021/03/04 08:58:11;;;;;;;14.95;8.45;;;18.10;51.50;;;;;;5006015;28;20456;-63
2021/03/04 09:00:36;;;;;;;12.63;8.48;;;18.10;51.60;;;;;;5005579;28;20114;-63
2021/03/04 09:03:06;;;;;;;13.90;7.88;;;18.10;51.50;;;;;;5005840;28;20137;-64
2021/03/04 09:05:32;;;;;;;12.00;7.90;;;18.10;51.50;;;;;;5005289;28;20034;-63
2021/03/04 09:07:57;;;;;;;12.60;7.95;;;18.10;51.50;;;;;;5005280;28;20096;-59
2021/03/04 09:10:23;;;;;;;12.10;7.53;;;18.10;51.50;;;;;;5006084;28;20608;-64
2021/03/04 09:12:48;;;;;;;12.65;8.40;;;18.10;51.60;;;;;;5005938;28;20041;-62
2021/03/04 09:15:18;;;;;;;12.55;8.23;;;18.10;51.50;;;;;;5006171;28;20026;-61
2021/03/04 09:17:44;;;;;;;14.52;8.13;;;18.10;51.50;;;;;;5024210;28;20117;-59
2021/03/04 09:20:10;;;;;;;14.40;8.23;;;18.10;51.40;;;;;;5014953;28;20060;-64
2021/03/04 09:22:39;;;;;;;11.85;7.45;;;18.10;51.40;;;;;;5007212;28;20037;-63
2021/03/04 09:25:05;;;;;;;11.20;7.68;;;18.10;51.40;;;;;;5025464;28;20141;-63
2021/03/04 09:27:30;;;;;;;11.90;6.85;;;18.10;51.40;;;;;;5007347;28;20543;-63
2021/03/04 09:29:56;;;;;;;9.93;6.93;;;18.10;51.40;;;;;;5007487;28;20495;-65
2021/03/04 09:32:32;;;;;;;12.48;7.95;;;18.10;51.40;;;;;;5027743;28;20036;-65
2021/03/04 09:34:57;;;;;;;11.15;7.82;;;18.10;51.50;;;;;;5027291;28;20034;-64
2021/03/04 09:37:23;;;;;;;11.45;7.50;;;18.10;51.40;;;;;;5010035;28;20033;-64
2021/03/04 09:39:50;;;;;;;10.65;7.18;;;18.10;51.40;;;;;;5030632;28;20030;-65
2021/03/04 09:42:20;;;;;;;10.48;7.15;;;18.10;51.40;;;;;;5031953;28;20250;-64
2021/03/04 09:44:55;;;;;;;12.32;7.07;;;18.10;51.30;;;;;;5030548;28;20033;-64
2021/03/04 09:47:28;;;;;;;8.68;6.80;;;18.10;51.30;;;;;;5029665;28;20299;-64
2021/03/04 09:49:54;;;;;;;11.32;6.97;;;18.10;51.40;;;;;;5025759;28;20037;-60
2021/03/04 09:52:27;;;;;;;13.20;6.22;;;18.10;51.40;;;;;;5026457;28;20117;-64
2021/03/04 09:55:10;;;;;;;9.35;6.88;;;18.10;51.30;;;;;;5025309;28;20492;-61
2021/03/04 09:57:38;;;;;;;11.43;7.70;;;18.10;51.30;;;;;;5024505;28;20124;-60
2021/03/04 10:00:06;;;;;;;10.40;6.85;;;18.10;51.30;;;;;;5024720;28;20037;-62
2021/03/04 10:02:38;;;;;;;10.32;6.85;;;18.10;51.40;;;;;;5025372;28;20128;-59
2021/03/04 10:05:04;;;;;;;10.45;6.10;;;18.10;51.30;;;;;;5024369;28;20037;-64
2021/03/04 10:07:30;;;;;;;9.18;7.28;;;18.10;51.30;;;;;;5024598;28;20032;-58
2021/03/04 10:09:57;;;;;;;10.30;6.85;;;18.10;51.30;;;;;;5023877;28;20034;-59
2021/03/04 10:12:22;;;;;;;7.80;6.82;;;18.10;51.40;;;;;;5024910;28;20083;-65
2021/03/04 10:14:49;;;;;;;10.93;6.40;;;18.10;51.40;;;;;;5025588;28;20041;-59
2021/03/04 10:17:15;;;;;;;9.85;7.18;;;18.10;51.40;;;;;;5023325;28;20025;-63
2021/03/04 10:19:40;;;;;;;9.65;6.28;;;18.10;51.30;;;;;;5023625;28;20172;-64
2021/03/04 10:22:06;;;;;;;11.68;6.72;;;18.10;52.00;;;;;;5024003;28;20506;-64
2021/03/04 10:24:32;;;;;;;9.48;6.72;;;18.10;51.40;;;;;;5024635;28;20070;-64
2021/03/04 10:26:59;;;;;;;9.25;6.72;;;18.10;51.40;;;;;;5023787;28;20377;-63
2021/03/04 10:29:26;;;;;;;9.20;6.30;;;18.10;51.40;;;;;;5024543;28;20029;-64
2021/03/04 10:31:51;;;;;;;11.00;6.35;;;18.10;51.60;;;;;;5024366;28;20033;-63
2021/03/04 10:34:17;;;;;;;9.48;6.68;;;18.10;51.70;;;;;;5023814;28;20083;-63
2021/03/04 10:36:42;;;;;;;12.25;6.90;;;18.10;51.90;;;;;;5023565;28;20080;-64
2021/03/04 10:39:07;;;;;;;8.55;5.55;;;18.10;51.90;;;;;;5023605;28;20044;-61
2021/03/04 10:41:33;;;;;;;8.05;6.20;;;18.10;51.90;;;;;;5023440;28;20018;-63
2021/03/04 10:43:58;;;;;;;11.45;6.60;;;18.10;51.80;;;;;;5024849;28;20029;-60
2021/03/04 10:46:24;;;;;;;9.50;6.65;;;18.10;51.70;;;;;;5024326;28;20033;-62
2021/03/04 10:48:49;;;;;;;9.90;6.28;;;18.10;51.60;;;;;;5023976;28;20029;-64
2021/03/04 10:51:15;;;;;;;10.98;6.38;;;18.10;51.70;;;;;;5024023;28;20034;-64
2021/03/04 10:53:40;;;;;;;7.40;5.80;;;18.10;51.70;;;;;;5024334;28;20408;-63
2021/03/04 10:56:06;;;;;;;10.50;6.95;;;18.10;51.70;;;;;;5025670;28;20087;-60
2021/03/04 10:58:31;;;;;;;8.43;6.18;;;18.10;51.50;;;;;;5010076;28;20033;-61
2021/03/04 11:00:57;;;;;;;8.40;5.93;;;18.10;51.50;;;;;;5025879;28;20489;-58
2021/03/04 11:03:22;;;;;;;8.10;5.70;;;18.10;51.40;;;;;;5023484;28;20492;-64
2021/03/04 11:05:48;;;;;;;7.68;5.60;;;18.10;51.60;;;;;;5023788;28;20022;-59
2021/03/04 11:08:13;;;;;;;9.50;5.82;;;18.10;51.50;;;;;;5024127;28;20022;-61
2021/03/04 11:10:39;;;;;;;12.13;6.47;;;18.10;51.50;;;;;;5006686;28;20075;-63
2021/03/04 11:13:04;;;;;;;7.72;5.97;;;18.10;51.50;;;;;;5024154;28;20030;-63
2021/03/04 11:15:30;;;;;;;8.40;5.47;;;18.10;52.10;;;;;;5023182;28;20104;-64
2021/03/04 11:17:55;;;;;;;7.95;6.28;;;18.10;51.30;;;;;;5023588;28;20029;-62
2021/03/04 11:20:21;;;;;;;8.07;5.78;;;18.10;51.40;;;;;;5024228;28;20048;-63
2021/03/04 11:22:47;;;;;;;8.30;5.53;;;18.10;51.50;;;;;;5023262;28;20072;-64
2021/03/04 11:25:13;;;;;;;7.28;5.90;;;18.10;51.50;;;;;;5024066;28;20211;-64
2021/03/04 11:27:38;;;;;;;6.85;5.78;;;18.10;51.50;;;;;;5023624;28;20022;-61
2021/03/04 11:30:06;;;;;;;8.90;6.13;;;18.10;51.50;;;;;;5024263;28;20163;-63
2021/03/04 11:32:31;;;;;;;8.00;5.65;;;18.10;51.50;;;;;;5023643;28;20078;-65
2021/03/04 11:34:56;;;;;;;8.02;5.82;;;18.10;51.60;;;;;;5024674;28;20029;-64
2021/03/04 11:37:22;;;;;;;7.88;5.47;;;18.10;51.60;;;;;;5023370;28;20053;-64
2021/03/04 11:39:48;;;;;;;12.07;6.30;;;18.10;51.50;;;;;;5024080;28;20500;-64
2021/03/04 11:42:14;;;;;;;6.45;5.07;;;18.10;51.50;;;;;;5008281;28;20034;-63
2021/03/04 11:44:39;;;;;;;10.43;5.40;;;18.10;51.60;;;;;;5027402;28;20028;-63
2021/03/04 11:47:05;;;;;;;7.50;5.90;;;18.10;51.60;;;;;;5026698;28;20029;-65
2021/03/04 11:49:30;;;;;;;8.38;6.18;;;18.10;51.60;;;;;;5027884;28;20693;-64
2021/03/04 11:51:56;;;;;;;7.63;5.35;;;18.10;51.60;;;;;;5026709;28;20082;-61
2021/03/04 11:54:21;;;;;;;8.35;6.38;;;18.10;51.50;;;;;;5027578;28;20037;-64
2021/03/04 11:56:46;;;;;;;6.57;5.80;;;18.10;51.60;;;;;;5026407;28;20045;-64
2021/03/04 11:59:13;;;;;;;7.28;5.97;;;18.10;51.60;;;;;;5026677;28;20028;-61
2021/03/04 12:01:40;;;;;;;8.00;5.70;;;18.10;51.60;;;;;;5026221;28;20022;-63
2021/03/04 12:04:06;;;;;;;9.85;5.95;;;18.10;51.60;;;;;;5027375;28;20033;-64
2021/03/04 12:06:32;;;;;;;7.18;5.45;;;18.10;51.50;;;;;;5026722;28;20014;-62
2021/03/04 12:08:58;;;;;;;6.10;4.65;;;18.20;51.60;;;;;;5027030;28;20029;-61
2021/03/04 12:11:23;;;;;;;8.00;6.30;;;18.20;51.60;;;;;;5009386;28;20029;-64
2021/03/04 12:13:49;;;;;;;9.48;5.88;;;18.20;51.60;;;;;;5027028;28;20029;-64
2021/03/04 12:16:14;;;;;;;8.65;5.43;;;18.10;51.50;;;;;;5026543;28;20113;-63
2021/03/04 12:18:40;;;;;;;8.25;6.07;;;18.10;51.60;;;;;;5025963;28;20025;-65
2021/03/04 12:21:05;;;;;;;7.45;5.53;;;18.10;51.60;;;;;;5027430;28;20160;-64
2021/03/04 12:23:31;;;;;;;7.18;5.30;;;18.10;51.90;;;;;;5026921;28;20128;-66
2021/03/04 12:25:56;;;;;;;10.93;5.72;;;18.10;52.10;;;;;;5009098;28;20033;-66
2021/03/04 12:28:22;;;;;;;9.25;6.43;;;18.10;52.30;;;;;;5026345;28;20036;-65
2021/03/04 12:30:47;;;;;;;10.80;7.22;;;18.10;52.30;;;;;;5026683;28;20068;-66
2021/03/04 12:33:13;;;;;;;12.10;6.90;;;18.10;52.30;;;;;;5026149;28;20032;-65
2021/03/04 12:35:39;;;;;;;12.95;6.43;;;18.10;52.40;;;;;;5027108;28;20021;-64
2021/03/04 12:38:05;;;;;;;13.35;6.95;;;18.10;52.50;;;;;;5026492;28;20036;-63
2021/03/04 12:40:32;;;;;;;10.18;5.70;;;18.10;52.40;;;;;;5026531;28;20029;-60
2021/03/04 12:42:57;;;;;;;12.77;6.30;;;18.10;52.30;;;;;;5026469;28;20419;-65